sensor_id;sensor_type;location;lat;lon;timestamp;temperature;humidity
65995;HTU21D;52764;51.036;5.852;2023-03-13T00:01:16;13.41;69.90
65995;HTU21D;52764;51.036;5.852;2023-03-13T00:03:43;13.44;70.11
65995;HTU21D;52764;51.036;5.852;2023-03-13T00:06:09;13.48;70.19
65995;HTU21D;52764;51.036;5.852;2023-03-13T00:08:35;13.47;70.25
65995;HTU21D;52764;51.036;5.852;2023-03-13T00:11:07;13.50;70.26
65995;HTU21D;52764;51.036;5.852;2023-03-13T00:13:34;13.54;70.10
65995;HTU21D;52764;51.036;5.852;2023-03-13T00:16:02;8.02;70.10
65995;HTU21D;52764;51.036;5.852;2023-03-13T00:18:28;13.52;70.31
65995;HTU21D;52764;51.036;5.852;2023-03-13T00:21:03;13.52;70.21
65995;HTU21D;52764;51.036;5.852;2023-03-13T00:23:30;13.50;70.37
65995;HTU21D;52764;51.036;5.852;2023-03-13T00:25:57;13.53;70.38
65995;HTU21D;52764;51.036;5.852;2023-03-13T00:28:23;13.49;70.29
65995;HTU21D;52764;51.036;5.852;2023-03-13T00:30:49;13.58;70.22
65995;HTU21D;52764;51.036;5.852;2023-03-13T00:33:14;13.60;70.19
65995;HTU21D;52764;51.036;5.852;2023-03-13T00:35:40;13.63;70.16
65995;HTU21D;52764;51.036;5.852;2023-03-13T00:38:06;13.67;70.16
65995;HTU21D;52764;51.036;5.852;2023-03-13T00:40:31;13.66;70.36
65995;HTU21D;52764;51.036;5.852;2023-03-13T00:42:57;13.55;71.17
65995;HTU21D;52764;51.036;5.852;2023-03-13T00:45:24;13.41;72.32
65995;HTU21D;52764;51.036;5.852;2023-03-13T00:47:51;13.22;73.48
65995;HTU21D;52764;51.036;5.852;2023-03-13T00:50:16;13.11;74.45
65995;HTU21D;52764;51.036;5.852;2023-03-13T00:52:43;13.05;75.28
65995;HTU21D;52764;51.036;5.852;2023-03-13T00:55:09;12.99;76.01
65995;HTU21D;52764;51.036;5.852;2023-03-13T00:57:34;12.93;76.78
65995;HTU21D;52764;51.036;5.852;2023-03-13T01:00:03;12.87;77.22
65995;HTU21D;52764;51.036;5.852;2023-03-13T01:02:32;12.85;77.77
65995;HTU21D;52764;51.036;5.852;2023-03-13T01:04:58;12.81;78.30
65995;HTU21D;52764;51.036;5.852;2023-03-13T01:07:24;12.75;78.75
65995;HTU21D;52764;51.036;5.852;2023-03-13T01:09:50;12.75;79.17
65995;HTU21D;52764;51.036;5.852;2023-03-13T01:12:16;12.71;79.45
65995;HTU21D;52764;51.036;5.852;2023-03-13T01:14:42;12.71;79.78
65995;HTU21D;52764;51.036;5.852;2023-03-13T01:17:07;12.73;79.75
65995;HTU21D;52764;51.036;5.852;2023-03-13T01:19:33;12.73;79.86
65995;HTU21D;52764;51.036;5.852;2023-03-13T01:21:59;12.66;80.14
65995;HTU21D;52764;51.036;5.852;2023-03-13T01:24:24;12.72;80.14
65995;HTU21D;52764;51.036;5.852;2023-03-13T01:26:50;12.74;80.04
65995;HTU21D;52764;51.036;5.852;2023-03-13T01:29:16;12.78;79.98
65995;HTU21D;52764;51.036;5.852;2023-03-13T01:31:42;12.84;79.99
65995;HTU21D;52764;51.036;5.852;2023-03-13T01:34:09;12.85;79.99
65995;HTU21D;52764;51.036;5.852;2023-03-13T01:36:36;12.88;79.95
65995;HTU21D;52764;51.036;5.852;2023-03-13T01:39:03;12.86;80.12
65995;HTU21D;52764;51.036;5.852;2023-03-13T01:41:30;12.91;80.12
65995;HTU21D;52764;51.036;5.852;2023-03-13T01:43:57;12.92;80.25
65995;HTU21D;52764;51.036;5.852;2023-03-13T01:46:29;12.88;80.35
65995;HTU21D;52764;51.036;5.852;2023-03-13T01:49:24;12.86;80.72
65995;HTU21D;52764;51.036;5.852;2023-03-13T01:52:15;12.84;81.15
65995;HTU21D;52764;51.036;5.852;2023-03-13T01:54:56;12.82;81.18
65995;HTU21D;52764;51.036;5.852;2023-03-13T01:57:40;12.80;81.49
65995;HTU21D;52764;51.036;5.852;2023-03-13T02:00:16;12.81;81.65
65995;HTU21D;52764;51.036;5.852;2023-03-13T02:02:47;12.84;81.72
65995;HTU21D;52764;51.036;5.852;2023-03-13T02:05:15;12.81;81.89
65995;HTU21D;52764;51.036;5.852;2023-03-13T02:07:51;12.87;81.90
65995;HTU21D;52764;51.036;5.852;2023-03-13T02:10:19;12.88;81.90
65995;HTU21D;52764;51.036;5.852;2023-03-13T02:12:47;12.93;81.83
65995;HTU21D;52764;51.036;5.852;2023-03-13T02:15:16;12.95;81.84
65995;HTU21D;52764;51.036;5.852;2023-03-13T02:17:45;13.01;81.80
65995;HTU21D;52764;51.036;5.852;2023-03-13T02:20:13;13.06;81.57
65995;HTU21D;52764;51.036;5.852;2023-03-13T02:27:45;13.17;81.04
65995;HTU21D;52764;51.036;5.852;2023-03-13T02:30:14;13.20;81.01
65995;HTU21D;52764;51.036;5.852;2023-03-13T02:32:40;13.24;80.92
65995;HTU21D;52764;51.036;5.852;2023-03-13T02:35:12;13.24;80.90
65995;HTU21D;52764;51.036;5.852;2023-03-13T02:37:41;13.25;80.82
65995;HTU21D;52764;51.036;5.852;2023-03-13T02:40:17;13.25;80.81
65995;HTU21D;52764;51.036;5.852;2023-03-13T02:42:47;13.32;80.65
65995;HTU21D;52764;51.036;5.852;2023-03-13T02:45:16;13.38;80.56
65995;HTU21D;52764;51.036;5.852;2023-03-13T02:47:43;13.41;80.94
65995;HTU21D;52764;51.036;5.852;2023-03-13T02:50:10;13.45;80.34
65995;HTU21D;52764;51.036;5.852;2023-03-13T02:52:57;13.47;80.21
65995;HTU21D;52764;51.036;5.852;2023-03-13T02:55:33;13.49;80.14
65995;HTU21D;52764;51.036;5.852;2023-03-13T02:58:01;13.51;80.14
65995;HTU21D;52764;51.036;5.852;2023-03-13T03:00:32;13.53;80.14
65995;HTU21D;52764;51.036;5.852;2023-03-13T03:02:57;13.56;80.11
65995;HTU21D;52764;51.036;5.852;2023-03-13T03:05:23;13.56;80.24
65995;HTU21D;52764;51.036;5.852;2023-03-13T03:07:50;13.54;80.40
65995;HTU21D;52764;51.036;5.852;2023-03-13T03:10:17;13.55;80.50
65995;HTU21D;52764;51.036;5.852;2023-03-13T03:12:43;13.56;80.42
65995;HTU21D;52764;51.036;5.852;2023-03-13T03:15:09;13.62;80.30
65995;HTU21D;52764;51.036;5.852;2023-03-13T03:17:37;13.60;80.31
65995;HTU21D;52764;51.036;5.852;2023-03-13T03:20:03;13.67;80.27
65995;HTU21D;52764;51.036;5.852;2023-03-13T03:22:38;13.71;80.21
65995;HTU21D;52764;51.036;5.852;2023-03-13T03:25:06;13.75;80.59
65995;HTU21D;52764;51.036;5.852;2023-03-13T03:27:33;13.75;80.24
65995;HTU21D;52764;51.036;5.852;2023-03-13T03:30:03;13.76;80.24
65995;HTU21D;52764;51.036;5.852;2023-03-13T03:32:30;13.77;80.36
65995;HTU21D;52764;51.036;5.852;2023-03-13T03:34:57;13.77;80.37
65995;HTU21D;52764;51.036;5.852;2023-03-13T03:37:23;13.80;80.52
65995;HTU21D;52764;51.036;5.852;2023-03-13T03:39:48;13.85;80.88
65995;HTU21D;52764;51.036;5.852;2023-03-13T03:42:15;13.84;80.40
65995;HTU21D;52764;51.036;5.852;2023-03-13T03:44:40;13.86;80.37
65995;HTU21D;52764;51.036;5.852;2023-03-13T03:47:08;14.13;80.62
65995;HTU21D;52764;51.036;5.852;2023-03-13T03:49:38;8.64;80.72
65995;HTU21D;52764;51.036;5.852;2023-03-13T03:52:04;13.85;80.78
65995;HTU21D;52764;51.036;5.852;2023-03-13T03:54:35;13.85;80.85
65995;HTU21D;52764;51.036;5.852;2023-03-13T03:57:01;13.88;80.91
65995;HTU21D;52764;51.036;5.852;2023-03-13T03:59:27;14.28;80.69
65995;HTU21D;52764;51.036;5.852;2023-03-13T04:01:59;13.90;80.97
65995;HTU21D;52764;51.036;5.852;2023-03-13T04:04:27;13.96;80.65
65995;HTU21D;52764;51.036;5.852;2023-03-13T04:07:06;14.48;80.50
65995;HTU21D;52764;51.036;5.852;2023-03-13T04:09:33;14.04;80.47
65995;HTU21D;52764;51.036;5.852;2023-03-13T04:12:00;14.07;80.92
65995;HTU21D;52764;51.036;5.852;2023-03-13T04:14:28;14.07;80.39
65995;HTU21D;52764;51.036;5.852;2023-03-13T04:16:54;14.63;80.42
65995;HTU21D;52764;51.036;5.852;2023-03-13T04:19:19;14.13;80.33
65995;HTU21D;52764;51.036;5.852;2023-03-13T04:21:45;14.12;80.30
65995;HTU21D;52764;51.036;5.852;2023-03-13T04:24:15;14.15;80.24
65995;HTU21D;52764;51.036;5.852;2023-03-13T04:26:42;14.18;80.26
65995;HTU21D;52764;51.036;5.852;2023-03-13T04:29:08;14.20;80.24
65995;HTU21D;52764;51.036;5.852;2023-03-13T04:32:00;14.24;80.17
65995;HTU21D;52764;51.036;5.852;2023-03-13T04:34:59;14.27;80.24
65995;HTU21D;52764;51.036;5.852;2023-03-13T04:37:41;14.28;80.15
65995;HTU21D;52764;51.036;5.852;2023-03-13T04:40:22;-12.38;80.26
65995;HTU21D;52764;51.036;5.852;2023-03-13T04:43:08;14.37;79.93
65995;HTU21D;52764;51.036;5.852;2023-03-13T04:45:55;15.14;79.88
65995;HTU21D;52764;51.036;5.852;2023-03-13T04:48:34;14.41;79.77
65995;HTU21D;52764;51.036;5.852;2023-03-13T04:51:35;14.40;79.85
65995;HTU21D;52764;51.036;5.852;2023-03-13T04:54:27;14.38;79.92
65995;HTU21D;52764;51.036;5.852;2023-03-13T04:57:01;14.40;80.01
65995;HTU21D;52764;51.036;5.852;2023-03-13T04:59:38;14.47;79.74
65995;HTU21D;52764;51.036;5.852;2023-03-13T05:02:04;14.50;79.59
65995;HTU21D;52764;51.036;5.852;2023-03-13T05:04:42;14.53;79.44
65995;HTU21D;52764;51.036;5.852;2023-03-13T05:07:26;14.56;79.33
65995;HTU21D;52764;51.036;5.852;2023-03-13T05:09:55;14.57;79.25
65995;HTU21D;52764;51.036;5.852;2023-03-13T05:12:39;14.57;79.16
65995;HTU21D;52764;51.036;5.852;2023-03-13T05:15:12;14.56;79.17
65995;HTU21D;52764;51.036;5.852;2023-03-13T05:18:00;14.57;79.23
65995;HTU21D;52764;51.036;5.852;2023-03-13T05:20:44;14.53;79.37
65995;HTU21D;52764;51.036;5.852;2023-03-13T05:23:31;14.50;79.49
65995;HTU21D;52764;51.036;5.852;2023-03-13T05:26:02;14.52;79.42
65995;HTU21D;52764;51.036;5.852;2023-03-13T05:28:45;14.52;79.37
65995;HTU21D;52764;51.036;5.852;2023-03-13T05:31:19;14.54;79.27
65995;HTU21D;52764;51.036;5.852;2023-03-13T05:33:56;14.62;78.92
65995;HTU21D;52764;51.036;5.852;2023-03-13T05:36:40;14.64;78.69
65995;HTU21D;52764;51.036;5.852;2023-03-13T05:39:06;14.67;78.52
65995;HTU21D;52764;51.036;5.852;2023-03-13T05:41:58;14.70;78.28
65995;HTU21D;52764;51.036;5.852;2023-03-13T05:44:41;10.44;78.00
65995;HTU21D;52764;51.036;5.852;2023-03-13T05:47:26;14.75;77.99
65995;HTU21D;52764;51.036;5.852;2023-03-13T05:50:10;-11.54;77.89
65995;HTU21D;52764;51.036;5.852;2023-03-13T05:52:53;14.75;77.84
65995;HTU21D;52764;51.036;5.852;2023-03-13T05:55:38;14.81;77.68
65995;HTU21D;52764;51.036;5.852;2023-03-13T05:58:26;14.78;77.58
65995;HTU21D;52764;51.036;5.852;2023-03-13T06:01:12;14.75;77.85
65995;HTU21D;52764;51.036;5.852;2023-03-13T06:03:41;14.74;77.84
65995;HTU21D;52764;51.036;5.852;2023-03-13T06:06:08;10.53;77.71
65995;HTU21D;52764;51.036;5.852;2023-03-13T06:08:39;14.78;77.24
65995;HTU21D;52764;51.036;5.852;2023-03-13T06:11:04;14.80;77.47
65995;HTU21D;52764;51.036;5.852;2023-03-13T06:13:32;14.83;77.26
65995;HTU21D;52764;51.036;5.852;2023-03-13T06:16:03;14.89;76.82
65995;HTU21D;52764;51.036;5.852;2023-03-13T06:18:39;14.93;76.63
65995;HTU21D;52764;51.036;5.852;2023-03-13T06:21:05;14.96;76.45
65995;HTU21D;52764;51.036;5.852;2023-03-13T06:23:30;14.99;76.21
65995;HTU21D;52764;51.036;5.852;2023-03-13T06:25:56;14.98;76.00
65995;HTU21D;52764;51.036;5.852;2023-03-13T06:28:22;13.55;75.77
65995;HTU21D;52764;51.036;5.852;2023-03-13T06:30:48;15.06;75.47
65995;HTU21D;52764;51.036;5.852;2023-03-13T06:33:13;15.07;75.39
65995;HTU21D;52764;51.036;5.852;2023-03-13T06:35:40;15.10;75.14
65995;HTU21D;52764;51.036;5.852;2023-03-13T06:38:08;15.10;75.04
65995;HTU21D;52764;51.036;5.852;2023-03-13T06:40:34;15.12;77.64
65995;HTU21D;52764;51.036;5.852;2023-03-13T06:43:00;15.15;74.68
65995;HTU21D;52764;51.036;5.852;2023-03-13T06:45:25;-10.66;74.54
65995;HTU21D;52764;51.036;5.852;2023-03-13T06:47:51;15.21;74.17
65995;HTU21D;52764;51.036;5.852;2023-03-13T06:50:18;15.18;74.02
65995;HTU21D;52764;51.036;5.852;2023-03-13T06:52:44;15.24;73.92
65995;HTU21D;52764;51.036;5.852;2023-03-13T06:55:11;15.28;73.65
65995;HTU21D;52764;51.036;5.852;2023-03-13T06:57:37;15.32;73.46
65995;HTU21D;52764;51.036;5.852;2023-03-13T07:00:03;15.33;72.33
65995;HTU21D;52764;51.036;5.852;2023-03-13T07:02:30;15.38;72.94
65995;HTU21D;52764;51.036;5.852;2023-03-13T07:04:56;15.40;72.70
65995;HTU21D;52764;51.036;5.852;2023-03-13T07:07:22;15.46;72.44
65995;HTU21D;52764;51.036;5.852;2023-03-13T07:09:48;15.52;72.25
65995;HTU21D;52764;51.036;5.852;2023-03-13T07:12:13;15.58;71.94
65995;HTU21D;52764;51.036;5.852;2023-03-13T07:14:39;15.62;71.59
65995;HTU21D;52764;51.036;5.852;2023-03-13T07:17:05;15.66;71.43
65995;HTU21D;52764;51.036;5.852;2023-03-13T07:19:30;15.71;71.25
65995;HTU21D;52764;51.036;5.852;2023-03-13T07:21:56;15.70;71.00
65995;HTU21D;52764;51.036;5.852;2023-03-13T07:24:22;15.71;70.84
65995;HTU21D;52764;51.036;5.852;2023-03-13T07:26:47;15.69;70.84
65995;HTU21D;52764;51.036;5.852;2023-03-13T07:29:13;15.71;70.77
65995;HTU21D;52764;51.036;5.852;2023-03-13T07:31:39;15.63;70.77
65995;HTU21D;52764;51.036;5.852;2023-03-13T07:34:04;15.65;70.77
65995;HTU21D;52764;51.036;5.852;2023-03-13T07:36:30;15.63;70.86
65995;HTU21D;52764;51.036;5.852;2023-03-13T07:38:56;12.18;70.78
65995;HTU21D;52764;51.036;5.852;2023-03-13T07:41:21;15.68;70.67
65995;HTU21D;52764;51.036;5.852;2023-03-13T07:43:47;15.72;70.39
65995;HTU21D;52764;51.036;5.852;2023-03-13T07:46:18;15.78;69.94
65995;HTU21D;52764;51.036;5.852;2023-03-13T07:48:45;15.87;69.18
65995;HTU21D;52764;51.036;5.852;2023-03-13T07:51:19;15.96;69.45
65995;HTU21D;52764;51.036;5.852;2023-03-13T07:53:46;16.02;69.25
65995;HTU21D;52764;51.036;5.852;2023-03-13T07:56:15;16.10;69.06
65995;HTU21D;52764;51.036;5.852;2023-03-13T07:58:42;16.16;68.94
65995;HTU21D;52764;51.036;5.852;2023-03-13T08:01:22;16.25;68.77
65995;HTU21D;52764;51.036;5.852;2023-03-13T08:03:48;16.29;68.65
65995;HTU21D;52764;51.036;5.852;2023-03-13T08:06:25;16.28;68.52
65995;HTU21D;52764;51.036;5.852;2023-03-13T08:08:55;16.34;68.38
65995;HTU21D;52764;51.036;5.852;2023-03-13T08:11:22;16.31;68.55
65995;HTU21D;52764;51.036;5.852;2023-03-13T08:13:52;16.31;68.58
65995;HTU21D;52764;51.036;5.852;2023-03-13T08:16:21;16.31;68.52
65995;HTU21D;52764;51.036;5.852;2023-03-13T08:18:49;16.33;68.66
65995;HTU21D;52764;51.036;5.852;2023-03-13T08:21:24;16.39;68.66
65995;HTU21D;52764;51.036;5.852;2023-03-13T08:23:55;16.34;68.63
65995;HTU21D;52764;51.036;5.852;2023-03-13T08:26:23;16.33;68.72
65995;HTU21D;52764;51.036;5.852;2023-03-13T08:28:58;16.37;68.73
65995;HTU21D;52764;51.036;5.852;2023-03-13T08:31:29;16.48;68.75
65995;HTU21D;52764;51.036;5.852;2023-03-13T08:33:56;16.94;68.60
65995;HTU21D;52764;51.036;5.852;2023-03-13T08:36:29;16.81;68.27
65995;HTU21D;52764;51.036;5.852;2023-03-13T08:38:59;16.86;67.66
65995;HTU21D;52764;51.036;5.852;2023-03-13T08:41:27;16.95;67.84
65995;HTU21D;52764;51.036;5.852;2023-03-13T08:43:55;17.06;67.68
65995;HTU21D;52764;51.036;5.852;2023-03-13T08:46:22;17.22;67.59
65995;HTU21D;52764;51.036;5.852;2023-03-13T08:48:52;15.63;67.17
65995;HTU21D;52764;51.036;5.852;2023-03-13T08:51:21;17.39;66.91
65995;HTU21D;52764;51.036;5.852;2023-03-13T08:53:47;17.60;66.87
65995;HTU21D;52764;51.036;5.852;2023-03-13T08:56:15;17.89;66.24
65995;HTU21D;52764;51.036;5.852;2023-03-13T08:58:41;18.07;65.72
65995;HTU21D;52764;51.036;5.852;2023-03-13T09:01:13;18.11;65.19
65995;HTU21D;52764;51.036;5.852;2023-03-13T09:03:40;18.03;65.06
65995;HTU21D;52764;51.036;5.852;2023-03-13T09:06:07;17.91;65.57
65995;HTU21D;52764;51.036;5.852;2023-03-13T09:08:34;17.78;66.04
65995;HTU21D;52764;51.036;5.852;2023-03-13T09:11:08;17.63;66.57
65995;HTU21D;52764;51.036;5.852;2023-03-13T09:13:37;17.52;67.20
65995;HTU21D;52764;51.036;5.852;2023-03-13T09:16:32;17.53;67.36
65995;HTU21D;52764;51.036;5.852;2023-03-13T09:18:59;17.74;67.07
65995;HTU21D;52764;51.036;5.852;2023-03-13T09:21:27;17.92;66.73
65995;HTU21D;52764;51.036;5.852;2023-03-13T09:23:53;18.02;66.52
65995;HTU21D;52764;51.036;5.852;2023-03-13T09:26:21;18.33;66.41
65995;HTU21D;52764;51.036;5.852;2023-03-13T09:28:47;18.61;74.33
65995;HTU21D;52764;51.036;5.852;2023-03-13T09:31:15;18.82;64.85
65995;HTU21D;52764;51.036;5.852;2023-03-13T09:33:43;18.93;64.00
65995;HTU21D;52764;51.036;5.852;2023-03-13T09:36:10;19.00;63.21
65995;HTU21D;52764;51.036;5.852;2023-03-13T09:38:37;19.10;63.24
65995;HTU21D;52764;51.036;5.852;2023-03-13T09:41:25;19.24;62.78
65995;HTU21D;52764;51.036;5.852;2023-03-13T09:43:57;19.29;62.42
65995;HTU21D;52764;51.036;5.852;2023-03-13T09:46:38;19.35;62.09
65995;HTU21D;52764;51.036;5.852;2023-03-13T09:57:32;19.45;61.59
65995;HTU21D;52764;51.036;5.852;2023-03-13T10:00:32;19.80;61.54
65995;HTU21D;52764;51.036;5.852;2023-03-13T10:05:58;19.42;61.60
65995;HTU21D;52764;51.036;5.852;2023-03-13T10:08:27;19.90;61.57
65995;HTU21D;52764;51.036;5.852;2023-03-13T10:11:23;19.47;61.39
65995;HTU21D;52764;51.036;5.852;2023-03-13T10:14:06;19.50;61.34
65995;HTU21D;52764;51.036;5.852;2023-03-13T10:17:28;19.51;61.54
65995;HTU21D;52764;51.036;5.852;2023-03-13T10:19:40;-1.78;61.61
65995;HTU21D;52764;51.036;5.852;2023-03-13T10:22:19;19.48;61.40
65995;HTU21D;52764;51.036;5.852;2023-03-13T10:24:58;19.35;61.81
65995;HTU21D;52764;51.036;5.852;2023-03-13T10:27:25;19.20;61.97
65995;HTU21D;52764;51.036;5.852;2023-03-13T10:29:51;-2.58;61.99
65995;HTU21D;52764;51.036;5.852;2023-03-13T10:32:17;19.16;62.12
65995;HTU21D;52764;51.036;5.852;2023-03-13T10:34:58;19.14;62.22
65995;HTU21D;52764;51.036;5.852;2023-03-13T10:37:39;19.27;62.31
65995;HTU21D;52764;51.036;5.852;2023-03-13T10:40:25;19.48;61.76
65995;HTU21D;52764;51.036;5.852;2023-03-13T10:42:58;19.60;61.18
65995;HTU21D;52764;51.036;5.852;2023-03-13T10:45:30;19.59;60.58
65995;HTU21D;52764;51.036;5.852;2023-03-13T10:48:11;19.66;60.14
65995;HTU21D;52764;51.036;5.852;2023-03-13T10:50:41;20.37;60.17
65995;HTU21D;52764;51.036;5.852;2023-03-13T10:53:43;20.61;60.12
65995;HTU21D;52764;51.036;5.852;2023-03-13T10:56:12;19.96;59.28
65995;HTU21D;52764;51.036;5.852;2023-03-13T10:58:50;20.78;58.74
65995;HTU21D;52764;51.036;5.852;2023-03-13T11:01:29;19.88;58.80
65995;HTU21D;52764;51.036;5.852;2023-03-13T11:04:26;19.88;59.25
65995;HTU21D;52764;51.036;5.852;2023-03-13T11:07:04;19.87;59.06
65995;HTU21D;52764;51.036;5.852;2023-03-13T11:09:31;19.85;58.61
65995;HTU21D;52764;51.036;5.852;2023-03-13T11:12:23;19.80;58.03
65995;HTU21D;52764;51.036;5.852;2023-03-13T11:14:56;19.84;58.13
65995;HTU21D;52764;51.036;5.852;2023-03-13T11:17:39;20.02;58.29
65995;HTU21D;52764;51.036;5.852;2023-03-13T11:20:24;20.12;58.18
65995;HTU21D;52764;51.036;5.852;2023-03-13T11:23:19;20.18;57.47
65995;HTU21D;52764;51.036;5.852;2023-03-13T11:28:44;20.05;57.29
65995;HTU21D;52764;51.036;5.852;2023-03-13T11:51:37;20.30;56.29
65995;HTU21D;52764;51.036;5.852;2023-03-13T11:56:54;20.46;56.77
65995;HTU21D;52764;51.036;5.852;2023-03-13T12:05:43;20.02;57.39
65995;HTU21D;52764;51.036;5.852;2023-03-13T12:08:43;19.98;58.69
65995;HTU21D;52764;51.036;5.852;2023-03-13T12:14:03;20.06;57.56
65995;HTU21D;52764;51.036;5.852;2023-03-13T12:19:13;20.27;57.28
65995;HTU21D;52764;51.036;5.852;2023-03-13T12:21:49;20.35;56.58
65995;HTU21D;52764;51.036;5.852;2023-03-13T12:26:54;20.37;56.03
65995;HTU21D;52764;51.036;5.852;2023-03-13T12:32:21;20.36;55.81
65995;HTU21D;52764;51.036;5.852;2023-03-13T12:34:59;20.33;55.87
65995;HTU21D;52764;51.036;5.852;2023-03-13T12:37:44;20.35;55.78
65995;HTU21D;52764;51.036;5.852;2023-03-13T12:41:23;20.40;55.52
65995;HTU21D;52764;51.036;5.852;2023-03-13T12:43:36;20.33;55.56
65995;HTU21D;52764;51.036;5.852;2023-03-13T12:57:45;20.01;55.94
65995;HTU21D;52764;51.036;5.852;2023-03-13T13:00:21;22.69;56.36
65995;HTU21D;52764;51.036;5.852;2023-03-13T13:06:16;20.02;56.77
65995;HTU21D;52764;51.036;5.852;2023-03-13T13:08:48;21.02;56.29
65995;HTU21D;52764;51.036;5.852;2023-03-13T13:17:14;22.48;56.23
65995;HTU21D;52764;51.036;5.852;2023-03-13T13:24:59;19.90;56.52
65995;HTU21D;52764;51.036;5.852;2023-03-13T13:27:45;19.82;56.85
65995;HTU21D;52764;51.036;5.852;2023-03-13T13:32:44;19.76;57.89
65995;HTU21D;52764;51.036;5.852;2023-03-13T13:37:48;19.83;57.71
65995;HTU21D;52764;51.036;5.852;2023-03-13T13:42:51;19.91;57.40
65995;HTU21D;52764;51.036;5.852;2023-03-13T13:45:24;19.91;57.06
65995;HTU21D;52764;51.036;5.852;2023-03-13T13:48:29;19.71;57.01
65995;HTU21D;52764;51.036;5.852;2023-03-13T14:04:59;19.57;56.72
65995;HTU21D;52764;51.036;5.852;2023-03-13T14:12:35;19.72;56.39
65995;HTU21D;52764;51.036;5.852;2023-03-13T14:23:37;19.82;56.90
65995;HTU21D;52764;51.036;5.852;2023-03-13T14:26:27;19.79;57.33
65995;HTU21D;52764;51.036;5.852;2023-03-13T14:28:58;19.71;57.64
65995;HTU21D;52764;51.036;5.852;2023-03-13T14:31:31;19.63;57.77
65995;HTU21D;52764;51.036;5.852;2023-03-13T14:34:00;19.61;57.84
65995;HTU21D;52764;51.036;5.852;2023-03-13T14:36:27;20.03;57.94
65995;HTU21D;52764;51.036;5.852;2023-03-13T14:38:57;19.37;58.27
65995;HTU21D;52764;51.036;5.852;2023-03-13T14:41:29;19.26;58.52
65995;HTU21D;52764;51.036;5.852;2023-03-13T14:44:03;19.20;58.93
65995;HTU21D;52764;51.036;5.852;2023-03-13T14:46:41;19.23;58.93
65995;HTU21D;52764;51.036;5.852;2023-03-13T14:49:18;19.28;58.72
65995;HTU21D;52764;51.036;5.852;2023-03-13T14:51:47;19.22;58.79
65995;HTU21D;52764;51.036;5.852;2023-03-13T14:54:52;19.20;58.96
65995;HTU21D;52764;51.036;5.852;2023-03-13T14:57:20;19.20;58.98
65995;HTU21D;52764;51.036;5.852;2023-03-13T14:59:49;19.17;58.94
65995;HTU21D;52764;51.036;5.852;2023-03-13T15:02:26;19.28;58.78
65995;HTU21D;52764;51.036;5.852;2023-03-13T15:04:59;19.23;58.56
65995;HTU21D;52764;51.036;5.852;2023-03-13T15:10:28;19.37;58.29
65995;HTU21D;52764;51.036;5.852;2023-03-13T15:12:56;19.42;65.12
65995;HTU21D;52764;51.036;5.852;2023-03-13T15:15:21;19.53;58.61
65995;HTU21D;52764;51.036;5.852;2023-03-13T15:17:47;19.53;58.27
65995;HTU21D;52764;51.036;5.852;2023-03-13T15:20:14;19.44;57.93
65995;HTU21D;52764;51.036;5.852;2023-03-13T15:22:43;19.37;57.38
65995;HTU21D;52764;51.036;5.852;2023-03-13T15:25:19;19.43;57.26
65995;HTU21D;52764;51.036;5.852;2023-03-13T15:27:47;19.13;57.28
65995;HTU21D;52764;51.036;5.852;2023-03-13T15:30:19;19.10;57.05
65995;HTU21D;52764;51.036;5.852;2023-03-13T15:32:46;19.00;56.84
65995;HTU21D;52764;51.036;5.852;2023-03-13T15:35:28;18.89;56.52
65995;HTU21D;52764;51.036;5.852;2023-03-13T15:37:58;18.81;56.73
65995;HTU21D;52764;51.036;5.852;2023-03-13T15:40:26;18.77;56.76
65995;HTU21D;52764;51.036;5.852;2023-03-13T15:42:53;18.82;57.40
65995;HTU21D;52764;51.036;5.852;2023-03-13T15:45:20;18.89;56.00
65995;HTU21D;52764;51.036;5.852;2023-03-13T15:47:45;18.81;56.32
65995;HTU21D;52764;51.036;5.852;2023-03-13T15:50:17;18.79;56.23
65995;HTU21D;52764;51.036;5.852;2023-03-13T15:52:44;18.71;55.91
65995;HTU21D;52764;51.036;5.852;2023-03-13T15:55:11;18.65;56.10
65995;HTU21D;52764;51.036;5.852;2023-03-13T15:57:43;18.61;56.10
65995;HTU21D;52764;51.036;5.852;2023-03-13T16:00:21;18.54;55.81
65995;HTU21D;52764;51.036;5.852;2023-03-13T16:02:47;18.48;55.81
65995;HTU21D;52764;51.036;5.852;2023-03-13T16:05:13;18.47;55.90
65995;HTU21D;52764;51.036;5.852;2023-03-13T16:07:38;18.39;55.89
65995;HTU21D;52764;51.036;5.852;2023-03-13T16:10:16;18.32;56.00
65995;HTU21D;52764;51.036;5.852;2023-03-13T16:12:42;18.20;55.97
65995;HTU21D;52764;51.036;5.852;2023-03-13T16:15:09;18.14;56.04
65995;HTU21D;52764;51.036;5.852;2023-03-13T16:17:36;18.11;55.83
65995;HTU21D;52764;51.036;5.852;2023-03-13T16:20:02;18.08;56.21
65995;HTU21D;52764;51.036;5.852;2023-03-13T16:22:30;18.09;56.96
65995;HTU21D;52764;51.036;5.852;2023-03-13T16:24:56;18.08;56.92
65995;HTU21D;52764;51.036;5.852;2023-03-13T16:27:21;18.10;56.26
65995;HTU21D;52764;51.036;5.852;2023-03-13T16:29:49;18.11;55.90
65995;HTU21D;52764;51.036;5.852;2023-03-13T16:32:16;18.11;55.49
65995;HTU21D;52764;51.036;5.852;2023-03-13T16:34:43;18.10;55.29
65995;HTU21D;52764;51.036;5.852;2023-03-13T16:37:17;18.11;54.79
65995;HTU21D;52764;51.036;5.852;2023-03-13T16:39:44;18.08;54.42
65995;HTU21D;52764;51.036;5.852;2023-03-13T16:42:10;18.06;54.37
65995;HTU21D;52764;51.036;5.852;2023-03-13T16:44:36;17.98;54.57
65995;HTU21D;52764;51.036;5.852;2023-03-13T16:47:04;17.96;54.63
65995;HTU21D;52764;51.036;5.852;2023-03-13T16:49:32;17.93;55.03
65995;HTU21D;52764;51.036;5.852;2023-03-13T16:51:58;17.98;55.12
65995;HTU21D;52764;51.036;5.852;2023-03-13T16:54:24;17.96;55.33
65995;HTU21D;52764;51.036;5.852;2023-03-13T16:56:50;17.90;55.61
65995;HTU21D;52764;51.036;5.852;2023-03-13T16:59:17;17.89;55.96
65995;HTU21D;52764;51.036;5.852;2023-03-13T17:01:44;17.83;55.55
65995;HTU21D;52764;51.036;5.852;2023-03-13T17:04:11;17.78;55.33
65995;HTU21D;52764;51.036;5.852;2023-03-13T17:06:39;17.73;55.05
65995;HTU21D;52764;51.036;5.852;2023-03-13T17:09:14;17.66;54.86
65995;HTU21D;52764;51.036;5.852;2023-03-13T17:11:40;17.61;54.90
65995;HTU21D;52764;51.036;5.852;2023-03-13T17:14:06;17.54;54.91
65995;HTU21D;52764;51.036;5.852;2023-03-13T17:16:35;17.52;54.75
65995;HTU21D;52764;51.036;5.852;2023-03-13T17:19:02;17.48;54.67
65995;HTU21D;52764;51.036;5.852;2023-03-13T17:21:30;17.45;54.49
65995;HTU21D;52764;51.036;5.852;2023-03-13T17:23:59;17.39;54.75
65995;HTU21D;52764;51.036;5.852;2023-03-13T17:26:33;17.37;54.81
65995;HTU21D;52764;51.036;5.852;2023-03-13T17:29:00;17.32;55.25
65995;HTU21D;52764;51.036;5.852;2023-03-13T17:31:28;17.28;55.32
65995;HTU21D;52764;51.036;5.852;2023-03-13T17:33:55;17.24;55.24
65995;HTU21D;52764;51.036;5.852;2023-03-13T17:36:24;17.26;55.16
65995;HTU21D;52764;51.036;5.852;2023-03-13T17:38:57;17.26;55.29
65995;HTU21D;52764;51.036;5.852;2023-03-13T17:41:26;17.29;55.35
65995;HTU21D;52764;51.036;5.852;2023-03-13T17:43:53;17.29;55.43
65995;HTU21D;52764;51.036;5.852;2023-03-13T17:46:28;17.31;55.62